西安 の空港の天気 - METARとTAF

西安咸陽国際空港 ( ZLXY / XIY ) - 中華人民共和国 陝西省西安市
飛行場実況気象(Metar)
観測時間09/22 05:00 CST (09/21 21:00 UTC)
風向・風速不定 1m/s
視程5000m
天気現象もや
なし
気温16℃
湿度100%
気圧1013hPa
METARZLXY 212100Z VRB01MPS 5000 BR NSC 16/16 Q1013 NOSIG
過去の天気等 Google飛行場航空写真 Wunderground天気予報

過去48時間のMETAR

飛行場予報(TAF)
発表時間: 9/21 23:06 CST (9/21 15:06 UTC)
予報対象時間: 22日2時 CST ~ 23日2時 CST
風向・風速東北東 3m/s
視程3,000m
天気現象煙霧
なし
TAF ZLXY 211506Z 2118/2218 06003MPS 3000 HZ NSC TX26/2208Z TN17/2122Z